Portada
METAR-TAF:

METAR-TAF

Aeropuertos :

Ghriss, Argelia

latitud: 35-12N, longitud: 000-08E, altitud: 514 m

Observación

El informe se hizo hace 58 minutos, a las 16:00 UTC
Viento 12 kt del norte-noreste
Temperatura 36°C
Humedad 21%
Presión 1016 hPa
Visibilidad 10 km o más
sin nubes por debajo de 1500 m y sin presencia de cumulonimbus.

METAR: DAOV 151600Z 03012KT CAVOK 36/10 Q1016

Hora: 17:58 (16:58 UTC)

Pronóstico

El informe se hizo hace 2 horas y 58 minutos, a las 14:00 UTC
Pronóstico válido del 15 a las 15 UTC al 15 a las 24 UTC
Viento 12 kt del norte-noreste
Visibilidad 10 km o más
sin nubes por debajo de 1500 m y sin presencia de cumulonimbus.
Evolucionando progresivamente
del 15 a las 19 UTC al 15 a las 21 UTC
Viento 2 kt con dirección variable
Visibilidad 10 km o más
Escasas nubes a una altura de 2600 ft

TAF: DAOV 151400Z 1515/1524 03012KT CAVOK BECMG 1519/1521 VRB02KT 9999 FEW026

Observaciones y pronósticos meteorológicos de más de 4000 aeropuertos (mensajes METAR y TAF).

Los puntos amarillos y rojos representan las estaciones disponibles.

Ponga el ratón en el punto deseado para ver el nombre de la estación.

Haga clic para ver las observaciones y los pronósticos meteorológicos.

Para cambiar el mapa : haga clic en los botones verdes con una cruz de color negro para hacer un zoom, en el botón verde con un guión para alejar o en las flechas verdes para mapas adyacentes.


METAR-TAF: